sensor_id;sensor_type;location;lat;lon;timestamp;temperature;humidity
19342;DHT22;9807;48.258;12.690;2023-02-11T09:03:19;1.30;99.90
19342;DHT22;9807;48.258;12.690;2023-02-11T09:11:47;0.60;99.90
19342;DHT22;9807;48.258;12.690;2023-02-11T09:14:39;0.60;99.90
19342;DHT22;9807;48.258;12.690;2023-02-11T09:17:08;0.50;99.90
19342;DHT22;9807;48.258;12.690;2023-02-11T09:20:24;0.60;99.90
19342;DHT22;9807;48.258;12.690;2023-02-11T09:23:20;1.10;99.90
19342;DHT22;9807;48.258;12.690;2023-02-11T09:26:43;1.40;99.90
19342;DHT22;9807;48.258;12.690;2023-02-11T09:29:12;1.50;99.90
19342;DHT22;9807;48.258;12.690;2023-02-11T09:31:42;1.30;99.90
19342;DHT22;9807;48.258;12.690;2023-02-11T09:34:11;1.40;99.90
19342;DHT22;9807;48.258;12.690;2023-02-11T09:36:44;1.30;99.90
19342;DHT22;9807;48.258;12.690;2023-02-11T09:43:21;1.90;99.90
19342;DHT22;9807;48.258;12.690;2023-02-11T09:46:34;2.00;99.90
19342;DHT22;9807;48.258;12.690;2023-02-11T09:49:57;2.10;99.90
19342;DHT22;9807;48.258;12.690;2023-02-11T09:55:39;2.40;99.90
19342;DHT22;9807;48.258;12.690;2023-02-11T09:58:32;2.50;99.90
19342;DHT22;9807;48.258;12.690;2023-02-11T10:06:15;2.50;99.90
19342;DHT22;9807;48.258;12.690;2023-02-11T11:55:47;5.20;99.90
19342;DHT22;9807;48.258;12.690;2023-02-11T12:34:05;5.80;99.90
19342;DHT22;9807;48.258;12.690;2023-02-11T12:36:39;5.70;99.90
19342;DHT22;9807;48.258;12.690;2023-02-11T12:55:43;6.50;99.90
19342;DHT22;9807;48.258;12.690;2023-02-11T12:58:24;6.60;99.90
19342;DHT22;9807;48.258;12.690;2023-02-11T13:01:18;6.60;99.90
19342;DHT22;9807;48.258;12.690;2023-02-11T13:07:02;6.70;99.90
19342;DHT22;9807;48.258;12.690;2023-02-11T13:12:32;6.60;99.90
19342;DHT22;9807;48.258;12.690;2023-02-11T13:15:25;6.60;99.90
19342;DHT22;9807;48.258;12.690;2023-02-11T13:18:09;6.70;99.90
19342;DHT22;9807;48.258;12.690;2023-02-11T13:20:39;6.80;99.90
19342;DHT22;9807;48.258;12.690;2023-02-11T13:26:21;6.90;99.90
19342;DHT22;9807;48.258;12.690;2023-02-11T13:29:23;7.10;99.90
19342;DHT22;9807;48.258;12.690;2023-02-11T13:32:04;6.90;99.90
19342;DHT22;9807;48.258;12.690;2023-02-11T13:35:02;6.70;99.90
19342;DHT22;9807;48.258;12.690;2023-02-11T13:37:37;6.60;99.90
19342;DHT22;9807;48.258;12.690;2023-02-11T13:40:23;6.50;99.90
19342;DHT22;9807;48.258;12.690;2023-02-11T13:43:01;6.20;99.90
19342;DHT22;9807;48.258;12.690;2023-02-11T13:45:38;6.40;99.90
19342;DHT22;9807;48.258;12.690;2023-02-11T13:48:35;6.40;99.90
19342;DHT22;9807;48.258;12.690;2023-02-11T13:54:03;6.40;99.90
19342;DHT22;9807;48.258;12.690;2023-02-11T13:56:37;6.30;99.90
19342;DHT22;9807;48.258;12.690;2023-02-11T14:02:29;6.30;99.90
19342;DHT22;9807;48.258;12.690;2023-02-11T14:05:26;6.30;99.90
19342;DHT22;9807;48.258;12.690;2023-02-11T14:19:45;6.10;99.90
19342;DHT22;9807;48.258;12.690;2023-02-11T14:22:50;6.10;99.90
19342;DHT22;9807;48.258;12.690;2023-02-11T14:32:08;5.90;99.90
19342;DHT22;9807;48.258;12.690;2023-02-11T14:35:19;6.00;99.90
19342;DHT22;9807;48.258;12.690;2023-02-11T14:38:18;5.90;99.90
19342;DHT22;9807;48.258;12.690;2023-02-11T14:43:41;5.90;99.90
19342;DHT22;9807;48.258;12.690;2023-02-11T14:46:13;5.90;99.90
19342;DHT22;9807;48.258;12.690;2023-02-11T14:48:50;5.80;99.90
19342;DHT22;9807;48.258;12.690;2023-02-11T14:51:23;5.90;99.90
19342;DHT22;9807;48.258;12.690;2023-02-11T14:53:53;5.80;99.90
19342;DHT22;9807;48.258;12.690;2023-02-11T14:56:26;5.70;99.90
19342;DHT22;9807;48.258;12.690;2023-02-11T14:58:53;5.70;99.90
19342;DHT22;9807;48.258;12.690;2023-02-11T15:01:39;5.60;99.90
19342;DHT22;9807;48.258;12.690;2023-02-11T15:04:22;5.70;99.90
19342;DHT22;9807;48.258;12.690;2023-02-11T15:06:52;5.80;99.90
19342;DHT22;9807;48.258;12.690;2023-02-11T15:09:21;5.70;99.90
19342;DHT22;9807;48.258;12.690;2023-02-11T15:11:51;5.70;99.90
19342;DHT22;9807;48.258;12.690;2023-02-11T15:14:34;5.70;99.90
19342;DHT22;9807;48.258;12.690;2023-02-11T15:17:06;5.70;99.90
19342;DHT22;9807;48.258;12.690;2023-02-11T15:19:43;5.70;99.90
19342;DHT22;9807;48.258;12.690;2023-02-11T15:22:32;5.70;99.90
19342;DHT22;9807;48.258;12.690;2023-02-11T15:25:13;5.80;99.90
19342;DHT22;9807;48.258;12.690;2023-02-11T15:27:46;5.80;99.90
19342;DHT22;9807;48.258;12.690;2023-02-11T15:32:52;5.80;99.90
19342;DHT22;9807;48.258;12.690;2023-02-11T15:35:29;5.80;99.90
19342;DHT22;9807;48.258;12.690;2023-02-11T15:37:57;5.90;99.90
19342;DHT22;9807;48.258;12.690;2023-02-11T15:40:31;6.00;99.90
19342;DHT22;9807;48.258;12.690;2023-02-11T15:43:03;6.20;99.90
19342;DHT22;9807;48.258;12.690;2023-02-11T15:45:37;6.30;99.90
19342;DHT22;9807;48.258;12.690;2023-02-11T15:48:13;6.50;99.90
19342;DHT22;9807;48.258;12.690;2023-02-11T15:50:42;6.50;99.90
19342;DHT22;9807;48.258;12.690;2023-02-11T15:53:21;6.70;99.90
19342;DHT22;9807;48.258;12.690;2023-02-11T15:55:50;6.90;99.90
19342;DHT22;9807;48.258;12.690;2023-02-11T15:58:16;6.80;99.90
19342;DHT22;9807;48.258;12.690;2023-02-11T16:00:51;6.90;99.90
19342;DHT22;9807;48.258;12.690;2023-02-11T16:03:28;7.00;99.90
19342;DHT22;9807;48.258;12.690;2023-02-11T16:09:03;6.80;99.90
19342;DHT22;9807;48.258;12.690;2023-02-11T16:11:54;6.80;99.90
19342;DHT22;9807;48.258;12.690;2023-02-11T16:17:10;6.70;99.90
19342;DHT22;9807;48.258;12.690;2023-02-11T16:19:43;6.80;99.90
19342;DHT22;9807;48.258;12.690;2023-02-11T16:22:14;6.90;99.90
19342;DHT22;9807;48.258;12.690;2023-02-11T16:24:46;7.00;99.90
19342;DHT22;9807;48.258;12.690;2023-02-11T16:27:21;7.10;99.90
19342;DHT22;9807;48.258;12.690;2023-02-11T16:32:47;7.10;99.90
19342;DHT22;9807;48.258;12.690;2023-02-11T16:35:13;7.10;99.90
19342;DHT22;9807;48.258;12.690;2023-02-11T16:37:45;6.80;99.90
19342;DHT22;9807;48.258;12.690;2023-02-11T16:40:15;6.70;99.90
19342;DHT22;9807;48.258;12.690;2023-02-11T16:42:44;6.50;99.90
19342;DHT22;9807;48.258;12.690;2023-02-11T16:45:20;6.40;99.90
19342;DHT22;9807;48.258;12.690;2023-02-11T16:48:08;6.60;99.90
19342;DHT22;9807;48.258;12.690;2023-02-11T16:50:51;6.70;99.90
19342;DHT22;9807;48.258;12.690;2023-02-11T16:53:22;6.80;99.90
19342;DHT22;9807;48.258;12.690;2023-02-11T16:55:50;6.90;99.90
19342;DHT22;9807;48.258;12.690;2023-02-11T16:58:17;6.70;99.90
19342;DHT22;9807;48.258;12.690;2023-02-11T17:00:54;6.40;99.90
19342;DHT22;9807;48.258;12.690;2023-02-11T17:03:26;5.90;99.90
19342;DHT22;9807;48.258;12.690;2023-02-11T17:05:55;5.60;99.90
19342;DHT22;9807;48.258;12.690;2023-02-11T17:08:22;5.40;99.90
19342;DHT22;9807;48.258;12.690;2023-02-11T17:10:53;5.50;99.90
19342;DHT22;9807;48.258;12.690;2023-02-11T17:17:42;6.00;99.90
19342;DHT22;9807;48.258;12.690;2023-02-11T17:34:54;6.50;99.90
19342;DHT22;9807;48.258;12.690;2023-02-11T17:44:25;6.90;99.90
19342;DHT22;9807;48.258;12.690;2023-02-11T17:46:51;6.90;99.90
19342;DHT22;9807;48.258;12.690;2023-02-11T17:49:17;6.90;99.90
19342;DHT22;9807;48.258;12.690;2023-02-11T17:54:26;7.00;99.90
19342;DHT22;9807;48.258;12.690;2023-02-11T17:56:52;7.00;99.90
19342;DHT22;9807;48.258;12.690;2023-02-11T17:59:19;7.00;99.90
19342;DHT22;9807;48.258;12.690;2023-02-11T18:02:01;7.10;99.90
19342;DHT22;9807;48.258;12.690;2023-02-11T18:07:14;6.90;99.90
19342;DHT22;9807;48.258;12.690;2023-02-11T18:09:50;6.80;99.90
19342;DHT22;9807;48.258;12.690;2023-02-11T18:12:24;6.50;99.90
19342;DHT22;9807;48.258;12.690;2023-02-11T18:14:52;5.90;99.90
19342;DHT22;9807;48.258;12.690;2023-02-11T18:17:21;5.50;99.90
19342;DHT22;9807;48.258;12.690;2023-02-11T18:19:53;5.20;99.90
19342;DHT22;9807;48.258;12.690;2023-02-11T18:22:28;4.90;99.90
19342;DHT22;9807;48.258;12.690;2023-02-11T18:25:16;4.90;99.90
19342;DHT22;9807;48.258;12.690;2023-02-11T18:28:01;4.80;99.90
19342;DHT22;9807;48.258;12.690;2023-02-11T18:30:32;4.80;99.90
19342;DHT22;9807;48.258;12.690;2023-02-11T18:33:01;4.90;99.90
19342;DHT22;9807;48.258;12.690;2023-02-11T18:35:38;5.00;99.90
19342;DHT22;9807;48.258;12.690;2023-02-11T18:38:14;5.00;99.90
19342;DHT22;9807;48.258;12.690;2023-02-11T18:40:51;5.10;99.90
19342;DHT22;9807;48.258;12.690;2023-02-11T18:43:37;5.30;99.90
19342;DHT22;9807;48.258;12.690;2023-02-11T18:46:25;5.60;99.90
19342;DHT22;9807;48.258;12.690;2023-02-11T18:49:01;5.80;99.90
19342;DHT22;9807;48.258;12.690;2023-02-11T18:51:38;6.00;99.90
19342;DHT22;9807;48.258;12.690;2023-02-11T18:54:21;6.10;99.90
19342;DHT22;9807;48.258;12.690;2023-02-11T18:57:11;6.00;99.90
19342;DHT22;9807;48.258;12.690;2023-02-11T18:59:52;6.20;99.90
19342;DHT22;9807;48.258;12.690;2023-02-11T19:05:46;6.20;99.90
19342;DHT22;9807;48.258;12.690;2023-02-11T19:08:25;6.30;99.90
19342;DHT22;9807;48.258;12.690;2023-02-11T19:18:35;6.10;99.90
19342;DHT22;9807;48.258;12.690;2023-02-11T19:21:08;6.00;99.90
19342;DHT22;9807;48.258;12.690;2023-02-11T19:24:14;6.10;99.90
19342;DHT22;9807;48.258;12.690;2023-02-11T19:29:50;6.50;99.90
19342;DHT22;9807;48.258;12.690;2023-02-11T19:32:44;6.50;99.90
19342;DHT22;9807;48.258;12.690;2023-02-11T19:35:10;6.60;99.90
19342;DHT22;9807;48.258;12.690;2023-02-11T19:37:36;6.30;99.90
19342;DHT22;9807;48.258;12.690;2023-02-11T19:40:10;6.00;99.90
19342;DHT22;9807;48.258;12.690;2023-02-11T19:46:03;5.20;99.90
19342;DHT22;9807;48.258;12.690;2023-02-11T19:48:34;4.80;99.90
19342;DHT22;9807;48.258;12.690;2023-02-11T19:51:09;4.60;99.90
19342;DHT22;9807;48.258;12.690;2023-02-11T19:53:48;4.50;99.90
19342;DHT22;9807;48.258;12.690;2023-02-11T19:56:22;4.30;99.90
19342;DHT22;9807;48.258;12.690;2023-02-11T19:58:54;4.20;99.90
19342;DHT22;9807;48.258;12.690;2023-02-11T20:01:26;4.00;99.90
19342;DHT22;9807;48.258;12.690;2023-02-11T20:03:59;4.10;99.90
19342;DHT22;9807;48.258;12.690;2023-02-11T20:06:42;4.10;99.90
19342;DHT22;9807;48.258;12.690;2023-02-11T20:09:16;4.00;99.90
19342;DHT22;9807;48.258;12.690;2023-02-11T20:11:48;4.20;99.90
19342;DHT22;9807;48.258;12.690;2023-02-11T20:14:14;4.30;99.90
19342;DHT22;9807;48.258;12.690;2023-02-11T20:16:43;4.40;99.90
19342;DHT22;9807;48.258;12.690;2023-02-11T20:19:19;4.50;99.90
19342;DHT22;9807;48.258;12.690;2023-02-11T20:21:54;4.60;99.90
19342;DHT22;9807;48.258;12.690;2023-02-11T20:24:39;4.90;99.90
19342;DHT22;9807;48.258;12.690;2023-02-11T20:30:22;5.40;99.90
19342;DHT22;9807;48.258;12.690;2023-02-11T20:32:59;5.60;99.90
19342;DHT22;9807;48.258;12.690;2023-02-11T20:35:28;5.60;99.90
19342;DHT22;9807;48.258;12.690;2023-02-11T20:37:59;5.50;99.90
19342;DHT22;9807;48.258;12.690;2023-02-11T20:40:31;5.40;99.90
19342;DHT22;9807;48.258;12.690;2023-02-11T20:43:10;5.10;99.90
19342;DHT22;9807;48.258;12.690;2023-02-11T20:45:50;4.90;99.90
19342;DHT22;9807;48.258;12.690;2023-02-11T20:48:30;4.70;99.90
19342;DHT22;9807;48.258;12.690;2023-02-11T20:54:31;4.40;99.90
19342;DHT22;9807;48.258;12.690;2023-02-11T20:57:49;4.50;99.90
19342;DHT22;9807;48.258;12.690;2023-02-11T21:00:16;4.40;99.90
19342;DHT22;9807;48.258;12.690;2023-02-11T21:02:44;4.40;99.90
19342;DHT22;9807;48.258;12.690;2023-02-11T21:05:18;4.40;99.90
19342;DHT22;9807;48.258;12.690;2023-02-11T21:07:46;4.40;99.90
19342;DHT22;9807;48.258;12.690;2023-02-11T21:10:24;4.30;99.90
19342;DHT22;9807;48.258;12.690;2023-02-11T21:13:03;4.30;99.90
19342;DHT22;9807;48.258;12.690;2023-02-11T21:15:38;4.30;99.90
19342;DHT22;9807;48.258;12.690;2023-02-11T21:18:10;4.30;99.90
19342;DHT22;9807;48.258;12.690;2023-02-11T21:21:19;4.30;99.90
19342;DHT22;9807;48.258;12.690;2023-02-11T21:23:51;4.30;99.90
19342;DHT22;9807;48.258;12.690;2023-02-11T21:26:17;4.50;99.90
19342;DHT22;9807;48.258;12.690;2023-02-11T21:28:47;4.30;99.90
19342;DHT22;9807;48.258;12.690;2023-02-11T21:31:25;4.50;99.90
19342;DHT22;9807;48.258;12.690;2023-02-11T21:34:04;4.40;99.90
19342;DHT22;9807;48.258;12.690;2023-02-11T21:36:55;4.50;99.90
19342;DHT22;9807;48.258;12.690;2023-02-11T21:39:39;4.50;99.90
19342;DHT22;9807;48.258;12.690;2023-02-11T21:42:09;4.50;99.90
19342;DHT22;9807;48.258;12.690;2023-02-11T21:44:55;4.50;99.90
19342;DHT22;9807;48.258;12.690;2023-02-11T21:47:26;4.50;99.90
19342;DHT22;9807;48.258;12.690;2023-02-11T21:50:01;4.40;99.90
19342;DHT22;9807;48.258;12.690;2023-02-11T21:52:37;4.40;99.90
19342;DHT22;9807;48.258;12.690;2023-02-11T21:58:01;4.30;99.90
19342;DHT22;9807;48.258;12.690;2023-02-11T22:00:53;4.30;99.90
19342;DHT22;9807;48.258;12.690;2023-02-11T22:03:21;4.20;99.90
19342;DHT22;9807;48.258;12.690;2023-02-11T22:05:49;4.40;99.90
19342;DHT22;9807;48.258;12.690;2023-02-11T22:08:15;4.30;99.90
19342;DHT22;9807;48.258;12.690;2023-02-11T22:10:43;4.40;99.90
19342;DHT22;9807;48.258;12.690;2023-02-11T22:13:18;4.40;99.90
19342;DHT22;9807;48.258;12.690;2023-02-11T22:16:06;4.50;99.90
19342;DHT22;9807;48.258;12.690;2023-02-11T22:21:51;4.40;99.90
19342;DHT22;9807;48.258;12.690;2023-02-11T22:24:20;4.50;99.90
19342;DHT22;9807;48.258;12.690;2023-02-11T22:26:48;4.70;99.90
19342;DHT22;9807;48.258;12.690;2023-02-11T22:29:26;4.50;99.90
19342;DHT22;9807;48.258;12.690;2023-02-11T22:31:54;4.70;99.90
19342;DHT22;9807;48.258;12.690;2023-02-11T22:34:28;4.60;99.90
19342;DHT22;9807;48.258;12.690;2023-02-11T22:36:54;4.60;99.90
19342;DHT22;9807;48.258;12.690;2023-02-11T22:39:28;4.80;99.90
19342;DHT22;9807;48.258;12.690;2023-02-11T22:42:02;4.60;99.90
19342;DHT22;9807;48.258;12.690;2023-02-11T22:44:33;4.50;99.90
19342;DHT22;9807;48.258;12.690;2023-02-11T22:46:59;4.60;99.90
19342;DHT22;9807;48.258;12.690;2023-02-11T22:49:33;4.70;99.90
19342;DHT22;9807;48.258;12.690;2023-02-11T22:52:11;4.80;99.90
19342;DHT22;9807;48.258;12.690;2023-02-11T22:54:37;4.80;99.90
19342;DHT22;9807;48.258;12.690;2023-02-11T22:57:05;4.90;99.90
19342;DHT22;9807;48.258;12.690;2023-02-11T22:59:33;5.00;99.90
19342;DHT22;9807;48.258;12.690;2023-02-11T23:02:02;5.00;99.90
19342;DHT22;9807;48.258;12.690;2023-02-11T23:04:51;5.10;99.90
19342;DHT22;9807;48.258;12.690;2023-02-11T23:07:26;5.10;99.90
19342;DHT22;9807;48.258;12.690;2023-02-11T23:10:08;5.20;99.90
19342;DHT22;9807;48.258;12.690;2023-02-11T23:12:34;5.20;99.90
19342;DHT22;9807;48.258;12.690;2023-02-11T23:15:03;5.10;99.90
19342;DHT22;9807;48.258;12.690;2023-02-11T23:17:44;5.20;99.90
19342;DHT22;9807;48.258;12.690;2023-02-11T23:20:10;5.20;99.90
19342;DHT22;9807;48.258;12.690;2023-02-11T23:22:42;5.20;99.90
19342;DHT22;9807;48.258;12.690;2023-02-11T23:25:08;5.10;99.90
19342;DHT22;9807;48.258;12.690;2023-02-11T23:27:44;4.90;99.90
19342;DHT22;9807;48.258;12.690;2023-02-11T23:30:13;4.90;99.90
19342;DHT22;9807;48.258;12.690;2023-02-11T23:32:56;4.70;99.90
19342;DHT22;9807;48.258;12.690;2023-02-11T23:35:22;4.50;99.90
19342;DHT22;9807;48.258;12.690;2023-02-11T23:38:05;4.70;99.90
19342;DHT22;9807;48.258;12.690;2023-02-11T23:40:34;4.40;99.90
19342;DHT22;9807;48.258;12.690;2023-02-11T23:43:03;4.50;99.90
19342;DHT22;9807;48.258;12.690;2023-02-11T23:45:31;4.50;99.90
19342;DHT22;9807;48.258;12.690;2023-02-11T23:47:57;4.40;99.90
19342;DHT22;9807;48.258;12.690;2023-02-11T23:50:26;4.40;99.90
19342;DHT22;9807;48.258;12.690;2023-02-11T23:53:04;4.30;99.90
19342;DHT22;9807;48.258;12.690;2023-02-11T23:55:42;4.10;99.90
19342;DHT22;9807;48.258;12.690;2023-02-11T23:58:11;4.30;99.90
